Time;durP1;ratioP1;P1;durP2;ratioP2;P2;SDS_P1;SDS_P2;PMS_P1;PMS_P2;Temp;Humidity;BMP_temperature;BMP_pressure;BME280_temperature;BME280_humidity;BME280_pressure;Samples;Min_cycle;Max_cycle;Signal;HPM_P1;HPM_P2
2022/12/20 00:01:25;;;;;;;12.77;7.15;;;;;;;-0.47;72.86;95142.09;5053647;28;20171;-35
2022/12/20 00:03:52;;;;;;;11.48;6.55;;;;;;;-0.31;70.93;95160.22;5053542;28;20036;-35
2022/12/20 00:06:18;;;;;;;13.95;6.72;;;;;;;-0.31;71.16;95160.97;5053388;28;20083;-35
2022/12/20 00:08:44;;;;;;;14.32;6.55;;;;;;;-0.29;70.85;95166.72;5053204;28;20037;-35
2022/12/20 00:11:10;;;;;;;13.07;7.07;;;;;;;-0.28;71.66;95164.78;5053388;28;20036;-35
2022/12/20 00:13:35;;;;;;;18.80;8.93;;;;;;;-0.34;72.24;95156.41;5052240;28;20028;-35
2022/12/20 00:16:15;;;;;;;12.18;5.72;;;;;;;-0.24;71.45;95177.00;5053323;28;20393;-35
2022/12/20 00:18:41;;;;;;;16.38;7.28;;;;;;;-0.30;71.48;95170.63;5053393;28;20037;-35
2022/12/20 00:21:09;;;;;;;11.90;6.78;;;;;;;-0.36;71.25;95180.50;5053280;28;20395;-36
2022/12/20 00:23:35;;;;;;;13.35;7.13;;;;;;;-0.43;69.34;95158.25;5051778;28;20036;-35
2022/12/20 00:26:06;;;;;;;13.18;6.72;;;;;;;-0.45;69.47;95185.84;5048214;28;20040;-35
2022/12/20 00:28:32;;;;;;;19.13;9.32;;;;;;;-0.42;69.69;95176.84;5047181;28;20056;-35
2022/12/20 00:30:58;;;;;;;14.57;9.32;;;;;;;-0.61;70.17;95158.84;5032869;28;20494;-35
2022/12/20 00:33:23;;;;;;;14.48;8.85;;;;;;;-0.40;69.56;95168.25;5033110;28;20049;-35
2022/12/20 00:35:50;;;;;;;17.48;8.30;;;;;;;-0.59;69.56;95144.84;5033057;28;20596;-35
2022/12/20 00:38:15;;;;;;;11.77;7.15;;;;;;;-0.55;70.29;95172.59;5032925;28;20037;-35
2022/12/20 00:40:41;;;;;;;11.52;6.63;;;;;;;-0.56;70.59;95166.41;5032913;28;20029;-35
2022/12/20 00:43:06;;;;;;;10.10;6.30;;;;;;;-0.65;69.18;95166.31;5032745;28;20037;-35
2022/12/20 00:45:32;;;;;;;8.27;5.93;;;;;;;-0.72;70.25;95176.63;5032822;28;20087;-35
2022/12/20 00:47:57;;;;;;;7.75;5.38;;;;;;;-0.72;69.42;95177.41;5032548;28;20484;-35
2022/12/20 00:50:23;;;;;;;10.80;6.20;;;;;;;-0.93;70.77;95170.66;5041493;28;20036;-35
2022/12/20 00:52:48;;;;;;;13.65;6.93;;;;;;;-1.11;70.66;95169.66;5052615;28;20029;-35
2022/12/20 00:55:14;;;;;;;12.95;6.85;;;;;;;-1.02;71.60;95175.94;5052410;28;20017;-35
2022/12/20 00:57:39;;;;;;;17.20;7.40;;;;;;;-0.91;72.13;95168.25;5052291;28;20029;-35
2022/12/20 01:00:05;;;;;;;12.38;7.80;;;;;;;-0.97;72.37;95161.88;5052539;28;20029;-35
2022/12/20 01:02:31;;;;;;;8.68;6.47;;;;;;;-0.79;70.83;95164.03;5051345;28;20119;-35
2022/12/20 01:04:56;;;;;;;12.35;7.30;;;;;;;-0.82;71.39;95162.97;5052383;28;20041;-35
2022/12/20 01:07:23;;;;;;;12.02;6.70;;;;;;;-0.82;71.28;95159.47;5052385;28;20040;-35
2022/12/20 01:09:49;;;;;;;9.13;6.00;;;;;;;-0.69;70.62;95170.34;5051758;28;20052;-35
2022/12/20 01:12:14;;;;;;;17.88;8.45;;;;;;;-0.72;70.62;95163.06;5051975;28;20477;-35
2022/12/20 01:14:40;;;;;;;22.42;9.10;;;;;;;-0.66;71.46;95161.31;5051897;28;20025;-35
2022/12/20 01:17:05;;;;;;;13.35;7.15;;;;;;;-0.79;70.52;95153.97;5052334;28;20021;-35
2022/12/20 01:19:31;;;;;;;13.68;7.38;;;;;;;-0.69;70.61;95156.78;5051874;28;20025;-35
2022/12/20 01:21:57;;;;;;;13.75;8.38;;;;;;;-0.61;70.28;95153.41;5051803;28;20024;-35
2022/12/20 01:24:22;;;;;;;11.85;7.43;;;;;;;-0.58;69.99;95155.25;5050006;28;20028;-35
2022/12/20 01:26:48;;;;;;;9.35;6.22;;;;;;;-0.76;69.70;95146.91;5031438;28;20044;-35
2022/12/20 01:29:14;;;;;;;12.85;6.97;;;;;;;-0.63;69.36;95142.25;5020829;28;20037;-35
2022/12/20 01:31:39;;;;;;;15.20;6.45;;;;;;;-0.68;69.83;95133.88;5032021;28;20060;-35
2022/12/20 01:34:05;;;;;;;10.90;6.57;;;;;;;-0.71;70.91;95140.19;5031623;28;20021;-35
2022/12/20 01:36:35;;;;;;;11.73;6.40;;;;;;;-0.77;69.20;95131.81;5031564;28;20112;-35
2022/12/20 01:39:07;;;;;;;13.70;6.28;;;;;;;-0.80;69.81;95130.75;5031493;28;20033;-35
2022/12/20 01:41:33;;;;;;;8.85;5.28;;;;;;;-0.89;69.02;95132.59;5031550;28;20090;-35
2022/12/20 01:44:03;;;;;;;15.02;6.35;;;;;;;-0.88;68.95;95126.75;5031258;28;20049;-35
2022/12/20 01:46:30;;;;;;;12.95;7.78;;;;;;;-0.93;69.42;95121.84;5039111;28;20036;-35
2022/12/20 01:49:12;;;;;;;10.48;5.72;;;;;;;-0.92;68.74;95119.91;5051597;28;20103;-35
2022/12/20 01:51:44;;;;;;;13.15;6.22;;;;;;;-0.93;69.00;95121.84;5051558;28;20036;-35
2022/12/20 01:54:14;;;;;;;7.72;5.18;;;;;;;-0.83;68.53;95126.22;5050017;28;20033;-35
2022/12/20 01:56:42;;;;;;;13.85;6.40;;;;;;;-0.83;68.84;95117.31;5049994;28;20037;-35
2022/12/20 01:59:07;;;;;;;10.02;6.10;;;;;;;-1.04;69.21;95099.00;5051201;28;20739;-35
2022/12/20 02:01:33;;;;;;;14.25;5.97;;;;;;;-1.00;69.39;95111.25;5051058;28;20025;-35
2022/12/20 02:03:58;;;;;;;14.35;6.97;;;;;;;-0.95;69.51;95113.41;5050043;28;20021;-35
2022/12/20 02:06:26;;;;;;;10.65;5.90;;;;;;;-0.92;69.52;95119.91;5051210;28;20508;-35
2022/12/20 02:08:53;;;;;;;8.20;5.95;;;;;;;-0.88;69.13;95115.13;5049681;28;20035;-35
2022/12/20 02:11:41;;;;;;;11.85;6.82;;;;;;;-0.84;68.43;95111.13;5050903;28;20527;-35
2022/12/20 02:14:12;;;;;;;15.18;6.63;;;;;;;-1.00;69.57;95107.78;5050793;28;20025;-35
2022/12/20 02:17:29;;;;;;;14.30;7.90;;;;;;;-0.90;69.97;95106.66;5050840;28;20107;-35
2022/12/20 02:20:10;;;;;;;13.60;6.28;;;;;;;-0.86;69.07;95094.53;5006408;28;20029;-35
2022/12/20 02:22:57;;;;;;;17.15;8.05;;;;;;;-0.96;68.89;95090.22;5049029;28;20119;-35
2022/12/20 02:25:34;;;;;;;11.68;6.75;;;;;;;-0.94;68.55;95095.19;5044830;28;20075;-35
2022/12/20 02:28:05;;;;;;;12.13;6.65;;;;;;;-0.94;68.81;95085.09;5029597;28;20065;-35
2022/12/20 02:30:38;;;;;;;10.20;6.18;;;;;;;-1.09;69.52;95058.88;5022121;28;20025;-35
2022/12/20 02:33:06;;;;;;;14.65;6.80;;;;;;;-1.08;70.46;95077.41;5029725;28;20032;-35
2022/12/20 02:35:35;;;;;;;10.10;5.72;;;;;;;-1.01;69.37;95081.84;5029682;28;20108;-35
2022/12/20 02:38:03;;;;;;;10.77;5.68;;;;;;;-0.98;69.04;95070.13;5030453;28;20029;-35
2022/12/20 02:40:38;;;;;;;9.27;6.07;;;;;;;-1.01;69.58;95066.34;5030789;28;20033;-35
2022/12/20 02:45:14;;;;;;;12.88;6.30;;;;;;;-0.97;69.47;95069.69;5029032;28;20033;-35
2022/12/20 02:45:56;;;;;;;9.77;5.90;;;;;;;-0.95;70.24;95075.44;5029317;28;20033;-35
2022/12/20 02:48:22;;;;;;;12.55;5.97;;;;;;;-0.98;69.46;95083.69;5029169;28;20100;-35
2022/12/20 02:50:51;;;;;;;17.58;7.60;;;;;;;-1.06;70.70;95074.28;5030639;28;20017;-35
2022/12/20 02:53:18;;;;;;;10.77;5.70;;;;;;;-1.12;70.37;95059.72;5029359;28;20486;-35
2022/12/20 02:56:04;;;;;;;11.68;6.55;;;;;;;-1.07;70.01;95075.44;5029527;28;20104;-35
2022/12/20 02:58:37;;;;;;;12.10;6.57;;;;;;;-1.08;69.67;95071.22;5029556;28;20592;-35
2022/12/20 03:01:10;;;;;;;8.35;5.53;;;;;;;-1.03;69.15;95076.09;5029105;28;20052;-35
2022/12/20 03:03:37;;;;;;;12.00;6.45;;;;;;;-1.07;69.30;95068.09;5029392;28;20028;-35
2022/12/20 03:06:02;;;;;;;10.60;6.40;;;;;;;-1.09;67.96;95077.84;5030031;28;20037;-35
2022/12/20 03:08:28;;;;;;;13.00;6.88;;;;;;;-1.37;68.73;95052.38;5030479;28;20025;-35
2022/12/20 03:10:54;;;;;;;11.88;6.18;;;;;;;-1.29;69.43;95072.63;5030432;28;20017;-35
2022/12/20 03:13:21;;;;;;;9.48;5.57;;;;;;;-1.22;69.49;95069.72;5030129;28;20498;-35
2022/12/20 03:15:47;;;;;;;11.15;6.20;;;;;;;-1.18;69.09;95062.22;5030073;28;20052;-35
2022/12/20 03:18:12;;;;;;;9.93;5.95;;;;;;;-1.18;68.93;95072.31;5030273;28;20037;-35
2022/12/20 03:20:38;;;;;;;10.00;6.00;;;;;;;-1.19;69.51;95065.38;5030040;28;20083;-35
2022/12/20 03:23:03;;;;;;;10.55;5.90;;;;;;;-1.29;69.15;95064.50;5030107;28;20068;-35
2022/12/20 03:25:29;;;;;;;12.70;6.88;;;;;;;-1.38;70.16;95069.81;5025395;28;20040;-35
2022/12/20 03:27:54;;;;;;;12.93;6.65;;;;;;;-1.33;70.08;95068.50;5029406;28;20032;-35
2022/12/20 03:30:20;;;;;;;11.77;6.55;;;;;;;-1.34;69.78;95073.16;5019677;28;20059;-35
2022/12/20 03:32:45;;;;;;;12.23;6.82;;;;;;;-1.32;70.30;95073.50;5030860;28;20075;-35
2022/12/20 03:35:11;;;;;;;13.38;5.78;;;;;;;-1.25;68.99;95069.81;5034155;28;20018;-35
2022/12/20 03:37:36;;;;;;;10.13;6.60;;;;;;;-1.28;69.36;95074.16;5034342;28;20401;-35
2022/12/20 03:40:02;;;;;;;9.40;5.15;;;;;;;-1.31;68.56;95068.84;5050125;28;20419;-35
2022/12/20 03:42:28;;;;;;;12.93;5.93;;;;;;;-1.35;69.17;95068.19;5053971;28;20100;-35
2022/12/20 03:44:53;;;;;;;9.25;5.35;;;;;;;-1.41;69.52;95061.78;5053413;28;20049;-35
2022/12/20 03:47:18;;;;;;;14.27;7.43;;;;;;;-1.50;69.80;95062.44;5053646;28;20086;-35
2022/12/20 03:49:44;;;;;;;13.50;6.80;;;;;;;-1.46;70.80;95073.16;5053517;28;20028;-35
2022/12/20 03:52:13;;;;;;;13.90;7.00;;;;;;;-1.37;70.47;95065.16;5053702;28;20025;-35
2022/12/20 03:54:39;;;;;;;15.65;7.68;;;;;;;-1.33;69.29;95071.22;5053831;28;20404;-35
2022/12/20 03:57:04;;;;;;;10.23;6.07;;;;;;;-1.25;68.16;95069.81;5053708;28;20118;-35
2022/12/20 03:59:30;;;;;;;16.80;7.68;;;;;;;-1.43;68.29;95064.19;5053671;28;20033;-35
2022/12/20 04:01:55;;;;;;;10.70;6.68;;;;;;;-1.37;68.19;95057.03;5053602;28;20021;-35
2022/12/20 04:04:21;;;;;;;16.98;6.82;;;;;;;-1.51;68.49;95050.06;5052173;28;20032;-35
2022/12/20 04:06:47;;;;;;;17.08;6.70;;;;;;;-1.63;70.18;95059.72;5053584;28;20492;-35
2022/12/20 04:09:13;;;;;;;15.63;6.25;;;;;;;-1.61;69.70;95048.44;5053424;28;20029;-35
2022/12/20 04:11:38;;;;;;;12.10;6.63;;;;;;;-1.60;70.28;95055.38;5053535;28;20027;-35
2022/12/20 04:14:04;;;;;;;7.70;4.82;;;;;;;-1.60;68.85;95037.16;5053281;28;20500;-35
2022/12/20 04:16:29;;;;;;;11.02;6.28;;;;;;;-1.56;69.27;95051.38;5053380;28;20087;-35
2022/12/20 04:18:55;;;;;;;9.45;5.60;;;;;;;-1.54;69.51;95048.25;5053331;28;20025;-35
2022/12/20 04:21:28;;;;;;;19.35;7.35;;;;;;;-1.68;68.97;95043.22;5053247;28;20659;-35
2022/12/20 04:23:54;;;;;;;15.18;6.53;;;;;;;-1.73;69.02;95044.53;5053246;28;20030;-35
2022/12/20 04:26:20;;;;;;;11.05;6.78;;;;;;;-1.77;69.34;95048.50;5034991;28;20025;-35
2022/12/20 04:28:46;;;;;;;11.68;6.78;;;;;;;-1.88;70.22;95053.47;5025597;28;20100;-35
2022/12/20 04:31:11;;;;;;;12.32;6.70;;;;;;;-2.01;70.64;95055.38;5029580;28;20044;-35
2022/12/20 04:33:37;;;;;;;10.00;6.22;;;;;;;-2.04;70.60;95048.91;5033168;28;20091;-35
2022/12/20 04:36:03;;;;;;;10.63;6.40;;;;;;;-2.08;71.27;95037.41;5047135;28;20542;-35
2022/12/20 04:38:28;;;;;;;12.38;6.25;;;;;;;-1.99;70.58;95051.06;5052636;28;20031;-35
2022/12/20 04:40:54;;;;;;;9.90;6.05;;;;;;;-2.03;70.02;95036.88;5052589;28;20021;-35
2022/12/20 04:43:21;;;;;;;10.43;6.00;;;;;;;-2.00;70.33;95046.84;5052391;28;20049;-35
2022/12/20 04:45:48;;;;;;;16.27;6.60;;;;;;;-2.10;70.62;95042.47;5051561;28;20055;-35
2022/12/20 04:48:14;;;;;;;11.88;6.45;;;;;;;-2.31;70.83;95034.94;5052335;28;20032;-35
2022/12/20 04:50:39;;;;;;;10.85;6.55;;;;;;;-2.33;71.42;95054.31;5052515;28;20021;-35
2022/12/20 04:55:49;;;;;;;15.00;6.45;;;;;;;-2.38;71.83;95052.13;5052697;28;20052;-35
2022/12/20 04:58:15;;;;;;;12.93;6.65;;;;;;;-2.47;72.99;95045.81;5052444;28;20447;-35
2022/12/20 05:00:40;;;;;;;18.40;7.40;;;;;;;-2.54;72.43;95032.47;5052231;28;20029;-35
2022/12/20 05:03:06;;;;;;;13.52;7.53;;;;;;;-2.55;73.10;95049.88;5052487;28;20032;-35
2022/12/20 05:05:31;;;;;;;10.65;6.28;;;;;;;-2.47;72.76;95045.81;5052144;28;20044;-35
2022/12/20 05:07:57;;;;;;;15.23;8.00;;;;;;;-2.57;73.06;95042.19;5052395;28;20028;-35
2022/12/20 05:10:23;;;;;;;13.60;6.18;;;;;;;-2.52;73.21;95041.69;5052210;28;20590;-35
2022/12/20 05:12:49;;;;;;;18.08;9.20;;;;;;;-2.52;73.53;95032.81;5052061;28;20512;-35
2022/12/20 05:15:14;;;;;;;13.38;6.63;;;;;;;-2.52;73.46;95025.47;5052177;28;20021;-35
2022/12/20 05:17:40;;;;;;;11.93;6.97;;;;;;;-2.53;73.22;95033.97;5051938;28;20120;-35
2022/12/20 05:20:06;;;;;;;13.60;6.68;;;;;;;-2.69;74.07;95031.31;5051738;28;20035;-35
2022/12/20 05:28:00;;;;;;;11.65;6.38;;;;;;;-2.74;74.79;95029.91;5030520;28;20087;-35
2022/12/20 05:30:26;;;;;;;14.60;7.68;;;;;;;-2.71;74.73;95031.75;5022411;28;20449;-35
2022/12/20 05:32:51;;;;;;;14.30;6.10;;;;;;;-2.78;74.95;95036.56;5050801;28;20100;-35
2022/12/20 05:35:17;;;;;;;14.32;7.10;;;;;;;-2.77;75.15;95030.00;5051660;28;20100;-35
2022/12/20 05:37:42;;;;;;;10.52;6.65;;;;;;;-2.77;74.98;95038.84;5051827;28;20033;-35
2022/12/20 05:40:09;;;;;;;12.63;6.75;;;;;;;-2.91;76.01;95030.34;5051728;28;20079;-35
2022/12/20 05:42:34;;;;;;;12.38;6.57;;;;;;;-2.94;76.05;95028.47;5051793;28;20028;-35
2022/12/20 05:45:00;;;;;;;11.38;5.68;;;;;;;-3.07;77.17;95036.50;5051216;28;20560;-35
2022/12/20 05:47:26;;;;;;;12.20;6.88;;;;;;;-3.25;76.96;95015.31;5051653;28;20021;-35
2022/12/20 05:49:52;;;;;;;12.10;6.63;;;;;;;-3.14;77.33;95037.44;5051588;28;20085;-35
2022/12/20 05:52:17;;;;;;;14.05;6.40;;;;;;;-3.17;77.25;95038.28;5051466;28;20040;-35
2022/12/20 05:54:42;;;;;;;15.60;8.25;;;;;;;-3.25;77.71;95036.91;5051456;28;20086;-35
2022/12/20 05:57:08;;;;;;;10.38;7.05;;;;;;;-3.32;77.23;95009.31;5051336;28;20063;-35
2022/12/20 05:59:34;;;;;;;13.73;7.53;;;;;;;-3.16;77.43;95037.09;5050177;28;20028;-35
2022/12/20 06:01:59;;;;;;;17.73;6.85;;;;;;;-3.13;77.20;95028.16;5050927;28;20052;-35
2022/12/20 06:04:25;;;;;;;11.95;7.10;;;;;;;-3.13;77.64;95041.66;5050854;28;20021;-35
2022/12/20 06:06:51;;;;;;;14.55;7.13;;;;;;;-3.14;77.70;95037.44;5051000;28;20500;-35
2022/12/20 06:09:16;;;;;;;16.70;8.85;;;;;;;-3.11;77.96;95038.53;5050827;28;20032;-35
2022/12/20 06:11:42;;;;;;;11.73;7.10;;;;;;;-3.13;77.93;95038.97;5050971;28;20017;-35
2022/12/20 06:14:07;;;;;;;23.33;8.50;;;;;;;-3.17;78.41;95038.28;5050989;28;20044;-35
2022/12/20 06:16:33;;;;;;;18.35;7.45;;;;;;;-3.09;78.04;95042.34;5050787;28;20025;-35
2022/12/20 06:18:59;;;;;;;17.88;8.13;;;;;;;-3.12;78.13;95042.44;5050801;28;20100;-35
2022/12/20 06:21:27;;;;;;;14.38;8.65;;;;;;;-3.07;77.47;95044.59;5050962;28;20416;-35
2022/12/20 06:23:53;;;;;;;10.82;6.75;;;;;;;-3.07;77.39;95047.31;5051042;28;20048;-35
2022/12/20 06:26:18;;;;;;;11.98;7.70;;;;;;;-3.20;77.82;95041.81;5045941;28;20545;-35
2022/12/20 06:28:44;;;;;;;16.02;9.15;;;;;;;-3.32;78.01;95028.22;5027149;28;20490;-35
2022/12/20 06:31:10;;;;;;;12.73;6.97;;;;;;;-3.29;77.69;95033.53;5027532;28;20024;-35
2022/12/20 06:33:36;;;;;;;10.75;7.55;;;;;;;-3.30;78.16;95034.75;5030923;28;20022;-35
2022/12/20 06:36:02;;;;;;;25.13;10.27;;;;;;;-3.28;78.48;95043.19;5030830;28;20088;-35
2022/12/20 06:38:27;;;;;;;25.05;10.18;;;;;;;-3.25;79.04;95038.88;5030605;28;20033;-35
2022/12/20 06:40:53;;;;;;;25.75;10.25;;;;;;;-3.11;78.71;95041.22;5030476;28;20026;-35
2022/12/20 06:43:18;;;;;;;14.48;8.23;;;;;;;-3.04;78.79;95041.06;5030246;28;20050;-35
2022/12/20 06:45:44;;;;;;;13.57;7.00;;;;;;;-2.93;78.58;95040.81;5030362;28;20025;-35
2022/12/20 06:48:10;;;;;;;17.30;8.02;;;;;;;-2.80;77.46;95033.53;5030422;28;20436;-35
2022/12/20 06:50:39;;;;;;;11.43;7.05;;;;;;;-2.68;76.63;95030.88;5030662;28;20478;-35
2022/12/20 06:53:04;;;;;;;;;;;;;;;-2.62;76.26;95023.78;5030944;28;20112;-35
2022/12/20 06:55:30;;;;;;;16.08;6.30;;;;;;;-2.53;75.76;95026.63;5030505;28;20437;-35
2022/12/20 06:57:55;;;;;;;16.75;6.97;;;;;;;-2.49;75.31;95029.25;5030498;28;20028;-35
2022/12/20 07:00:21;;;;;;;13.10;7.80;;;;;;;-2.27;75.07;95030.19;5030149;28;20029;-35
2022/12/20 07:02:47;;;;;;;13.13;7.25;;;;;;;-1.77;74.44;95026.84;5030470;28;20386;-35
2022/12/20 07:05:12;;;;;;;10.20;6.07;;;;;;;-1.59;71.95;95019.75;5030417;28;20033;-35
2022/12/20 07:07:37;;;;;;;10.80;5.35;;;;;;;-1.31;70.68;95020.84;5029665;28;20022;-35
2022/12/20 07:10:03;;;;;;;13.55;6.40;;;;;;;-1.02;70.33;95024.16;5030302;28;20139;-35
2022/12/20 07:12:29;;;;;;;11.93;7.50;;;;;;;-0.36;69.67;95022.38;5030463;28;20055;-35
2022/12/20 07:14:54;;;;;;;14.00;6.53;;;;;;;0.28;68.25;95031.72;5030418;28;20452;-35
2022/12/20 07:17:20;;;;;;;13.20;6.80;;;;;;;0.72;65.62;95030.44;5030091;28;20033;-36
2022/12/20 07:19:46;;;;;;;12.77;6.70;;;;;;;1.01;64.22;95025.41;5030021;28;20052;-35
2022/12/20 07:22:11;;;;;;;11.02;6.50;;;;;;;1.08;62.67;95025.16;5029944;28;20666;-36
2022/12/20 07:24:38;;;;;;;15.85;8.27;;;;;;;1.46;61.70;95028.25;5039280;28;20033;-35
2022/12/20 07:27:03;;;;;;;12.60;7.95;;;;;;;1.89;60.65;95024.47;5029655;28;20026;-35
2022/12/20 07:29:28;;;;;;;15.23;8.05;;;;;;;1.72;61.39;95023.28;5019079;28;20037;-35
2022/12/20 07:31:54;;;;;;;12.20;6.82;;;;;;;1.70;60.14;95022.22;5029890;28;20112;-35
2022/12/20 07:34:19;;;;;;;14.32;8.13;;;;;;;1.63;60.38;95019.78;5029889;28;20064;-35
2022/12/20 07:36:45;;;;;;;12.20;6.90;;;;;;;1.68;59.73;95019.94;5029898;28;20068;-35
2022/12/20 07:39:10;;;;;;;11.05;6.45;;;;;;;1.68;58.66;95016.47;5029847;28;20026;-36
2022/12/20 07:41:36;;;;;;;13.70;7.40;;;;;;;1.77;58.76;95017.22;5029842;28;20022;-35
2022/12/20 07:44:01;;;;;;;7.82;5.15;;;;;;;1.93;56.70;95003.28;5029675;28;20053;-35
2022/12/20 07:46:27;;;;;;;13.82;7.18;;;;;;;1.79;57.44;95003.91;5030064;28;20034;-35
2022/12/20 07:48:52;;;;;;;17.40;8.65;;;;;;;1.70;58.08;95003.16;5030109;28;20117;-35
2022/12/20 07:51:25;;;;;;;13.85;7.47;;;;;;;1.92;56.58;95001.78;5030089;28;20028;-35
2022/12/20 07:53:54;;;;;;;11.38;6.38;;;;;;;2.21;56.21;94987.66;5030059;28;20413;-35
2022/12/20 07:56:21;;;;;;;11.35;6.85;;;;;;;2.98;54.34;94994.22;5029659;28;20025;-35
2022/12/20 07:58:48;;;;;;;9.38;6.13;;;;;;;3.60;52.29;95002.50;5030034;28;20021;-36
2022/12/20 08:01:14;;;;;;;35.17;16.23;;;;;;;3.86;50.58;95003.50;5028437;28;20101;-35
2022/12/20 08:03:44;;;;;;;19.90;9.63;;;;;;;4.02;49.48;95007.78;5029998;28;20104;-35
2022/12/20 08:06:10;;;;;;;20.02;11.05;;;;;;;4.63;49.08;94999.44;5029608;28;20029;-36
2022/12/20 08:08:37;;;;;;;48.60;24.63;;;;;;;5.06;47.00;94997.13;5044931;28;20025;-36
2022/12/20 08:11:03;;;;;;;29.60;15.73;;;;;;;5.59;46.26;94999.63;5029873;28;20409;-36
2022/12/20 08:13:31;;;;;;;16.30;10.93;;;;;;;5.47;45.30;94997.94;5029595;28;20033;-36
2022/12/20 08:15:56;;;;;;;12.85;7.55;;;;;;;5.67;44.82;95000.72;5029865;28;20379;-36
2022/12/20 08:18:21;;;;;;;32.60;17.00;;;;;;;5.76;44.26;94987.59;5029816;28;20029;-35
2022/12/20 08:20:47;;;;;;;21.98;15.65;;;;;;;6.39;43.23;94988.56;5043969;28;20033;-35
2022/12/20 08:23:13;;;;;;;10.85;7.78;;;;;;;7.46;41.72;94986.16;5053230;28;20034;-35
2022/12/20 08:25:38;;;;;;;10.55;6.20;;;;;;;7.95;40.14;94973.88;5048096;28;20013;-35
2022/12/20 08:28:03;;;;;;;7.63;5.18;;;;;;;8.98;38.97;94974.59;5051204;28;20533;-36
2022/12/20 08:30:29;;;;;;;11.35;6.90;;;;;;;9.42;36.15;94981.31;5033311;28;20401;-36
2022/12/20 08:32:54;;;;;;;18.10;9.10;;;;;;;9.70;37.28;94968.19;5031705;28;20413;-36
2022/12/20 08:35:20;;;;;;;12.20;7.32;;;;;;;10.63;36.20;94971.78;5032072;28;20501;-34
2022/12/20 08:37:46;;;;;;;9.77;5.88;;;;;;;11.22;33.52;94960.75;5031943;28;20057;-34
2022/12/20 08:40:12;;;;;;;8.65;4.38;;;;;;;11.21;33.30;94969.56;5033063;28;20025;-34
2022/12/20 08:42:37;;;;;;;8.32;4.63;;;;;;;11.22;32.42;94968.28;5032797;28;20024;-34
2022/12/20 08:45:03;;;;;;;7.15;4.47;;;;;;;11.30;33.20;94945.06;5032474;28;20049;-36
2022/12/20 08:47:29;;;;;;;7.72;4.75;;;;;;;10.98;32.29;94959.97;5032993;28;20108;-36
2022/12/20 08:49:55;;;;;;;6.45;5.07;;;;;;;11.29;32.08;94959.44;5032569;28;20481;-36
2022/12/20 08:52:20;;;;;;;7.55;4.57;;;;;;;10.92;32.70;94953.72;5032841;28;20029;-36
2022/12/20 08:54:46;;;;;;;7.38;4.22;;;;;;;11.10;31.97;94956.59;5032797;28;20017;-36
2022/12/20 08:57:11;;;;;;;5.53;4.60;;;;;;;11.39;32.42;94952.31;5032763;28;20464;-36
2022/12/20 08:59:37;;;;;;;6.85;5.00;;;;;;;11.44;30.46;94949.47;5032745;28;20052;-36
2022/12/20 09:02:02;;;;;;;7.00;4.50;;;;;;;11.37;29.79;94949.28;5032591;28;20485;-36
2022/12/20 09:04:28;;;;;;;5.72;3.60;;;;;;;10.62;29.63;94948.94;5031160;28;20386;-36
2022/12/20 09:06:53;;;;;;;7.43;3.92;;;;;;;10.18;31.23;94940.19;5032649;28;20034;-35
2022/12/20 09:09:19;;;;;;;5.15;3.70;;;;;;;10.06;30.49;94941.44;5032567;28;20520;-36
2022/12/20 09:11:44;;;;;;;3.63;2.80;;;;;;;9.84;30.22;94951.34;5032616;28;20075;-36
2022/12/20 09:14:10;;;;;;;6.38;3.30;;;;;;;9.36;30.48;94948.22;5032617;28;20052;-35
2022/12/20 09:16:35;;;;;;;6.30;3.33;;;;;;;9.69;31.06;94939.84;5040683;28;20029;-35
2022/12/20 09:19:02;;;;;;;5.53;3.00;;;;;;;9.79;31.14;94935.53;5052084;28;20025;-35
2022/12/20 09:21:27;;;;;;;8.88;5.43;;;;;;;10.11;31.32;94932.44;5050783;28;20024;-35
2022/12/20 09:23:54;;;;;;;4.63;3.03;;;;;;;9.98;30.20;94923.94;5052217;28;20027;-35
2022/12/20 09:26:20;;;;;;;4.80;3.22;;;;;;;10.18;30.26;94915.34;5034060;28;20402;-35
2022/12/20 09:28:46;;;;;;;4.35;3.33;;;;;;;9.42;30.60;94901.34;5024626;28;20116;-36
2022/12/20 09:31:23;;;;;;;4.82;3.35;;;;;;;9.47;30.77;94911.59;5028155;28;20040;-36
2022/12/20 09:33:49;;;;;;;5.47;2.50;;;;;;;9.72;30.30;94905.00;5032205;28;20459;-35
2022/12/20 09:36:19;;;;;;;3.20;2.58;;;;;;;8.82;31.18;94909.22;5031655;28;20021;-36
2022/12/20 09:38:45;;;;;;;2.60;2.30;;;;;;;8.86;30.53;94906.97;5031923;28;20021;-35
2022/12/20 09:41:32;;;;;;;5.38;2.83;;;;;;;9.28;31.26;94903.16;5031708;28;20070;-35
2022/12/20 09:44:00;;;;;;;6.32;2.67;;;;;;;9.70;29.99;94888.22;5031427;28;20053;-35
2022/12/20 09:46:26;;;;;;;3.83;2.58;;;;;;;9.72;29.82;94880.19;5030098;28;20048;-36
2022/12/20 09:48:52;;;;;;;6.85;2.65;;;;;;;9.89;29.49;94867.81;5031781;28;20021;-35
2022/12/20 09:51:20;;;;;;;4.05;3.15;;;;;;;9.70;29.93;94879.94;5030246;28;20509;-35
2022/12/20 09:54:07;;;;;;;4.50;2.67;;;;;;;10.09;30.36;94876.97;5031917;28;20109;-35
2022/12/20 09:56:40;;;;;;;4.45;3.00;;;;;;;10.52;29.89;94866.91;5031539;28;20024;-36
2022/12/20 09:59:23;;;;;;;5.65;3.22;;;;;;;10.62;30.41;94865.31;5030381;28;20417;-35
2022/12/20 10:01:49;;;;;;;7.97;3.15;;;;;;;11.25;30.19;94854.66;5030170;28;20025;-36
2022/12/20 10:04:25;;;;;;;4.13;2.65;;;;;;;11.33;27.92;94843.75;5030183;28;20029;-36
2022/12/20 10:07:27;;;;;;;5.85;2.95;;;;;;;11.57;28.41;94846.50;5031411;28;20094;-36
2022/12/20 10:10:17;;;;;;;4.55;3.35;;;;;;;11.82;28.20;94836.16;5030201;28;20040;-35
2022/12/20 10:13:12;;;;;;;4.72;2.83;;;;;;;11.50;27.96;94841.53;5038674;28;20090;-35
2022/12/20 10:15:47;;;;;;;6.30;3.60;;;;;;;11.59;28.85;94829.38;5050034;28;20029;-36
2022/12/20 10:18:35;;;;;;;5.57;3.40;;;;;;;12.13;27.95;94835.44;5051063;28;20028;-36
2022/12/20 10:21:12;;;;;;;5.07;2.78;;;;;;;11.57;27.29;94824.38;5050797;28;20495;-36
2022/12/20 10:24:02;;;;;;;4.90;3.50;;;;;;;11.19;29.01;94822.81;5050830;28;20033;-35
2022/12/20 10:26:28;;;;;;;3.20;2.65;;;;;;;10.13;29.47;94814.75;5046020;28;20032;-35
2022/12/20 10:28:54;;;;;;;4.78;3.08;;;;;;;9.22;30.74;94811.47;5042147;28;20037;-36
2022/12/20 10:31:20;;;;;;;5.35;2.38;;;;;;;9.47;29.96;94806.84;5012149;28;20029;-35
2022/12/20 10:33:45;;;;;;;6.00;2.60;;;;;;;9.68;31.29;94803.22;5011171;28;20026;-35
2022/12/20 10:36:30;;;;;;;4.00;2.45;;;;;;;10.09;31.32;94792.16;5011117;28;20084;-35
2022/12/20 10:39:04;;;;;;;4.70;2.65;;;;;;;10.54;29.17;94781.53;5011071;28;20034;-35
2022/12/20 10:41:47;;;;;;;3.80;2.58;;;;;;;10.81;28.92;94782.50;5010888;28;20600;-35
2022/12/20 10:44:23;;;;;;;3.97;2.75;;;;;;;10.45;29.45;94779.09;5009002;28;20057;-36
2022/12/20 10:46:57;;;;;;;3.92;2.60;;;;;;;10.42;30.51;94769.84;5010785;28;20034;-35
2022/12/20 10:49:35;;;;;;;3.42;2.40;;;;;;;10.13;31.09;94761.56;5009880;28;20056;-36
2022/12/20 10:52:07;;;;;;;3.72;3.15;;;;;;;10.02;31.81;94762.38;5010787;28;20026;-35
2022/12/20 10:54:36;;;;;;;4.63;2.72;;;;;;;9.98;30.70;94756.41;5010930;28;20030;-35
2022/12/20 10:57:22;;;;;;;;;;;;;;;9.23;32.48;94757.09;5011130;28;20036;-35
